Time;durP1;ratioP1;P1;durP2;ratioP2;P2;SDS_P1;SDS_P2;PMS_P1;PMS_P2;Temp;Humidity;BMP_temperature;BMP_pressure;BME280_temperature;BME280_humidity;BME280_pressure;Samples;Min_cycle;Max_cycle;Signal;HPM_P1;HPM_P2
2022/08/02 00:01:39;;;;;;;6.53;2.75;;;15.90;99.90;;;;;;5037570;28;20073;-65
2022/08/02 00:04:05;;;;;;;6.43;2.75;;;15.80;99.90;;;;;;5036896;28;20100;-65
2022/08/02 00:06:31;;;;;;;7.78;2.67;;;15.80;99.90;;;;;;5040413;28;20072;-65
2022/08/02 00:08:57;;;;;;;5.47;2.88;;;15.80;99.90;;;;;;5043759;28;20069;-65
2022/08/02 00:11:22;;;;;;;5.55;2.72;;;15.80;99.90;;;;;;5040101;28;20037;-64
2022/08/02 00:13:48;;;;;;;6.18;2.55;;;15.80;99.90;;;;;;5036674;28;20082;-65
2022/08/02 00:16:14;;;;;;;6.78;2.70;;;15.80;99.90;;;;;;5037474;28;20114;-65
2022/08/02 00:18:39;;;;;;;7.85;2.80;;;15.80;99.90;;;;;;5040793;28;20353;-65
2022/08/02 00:21:05;;;;;;;8.75;2.88;;;15.80;99.90;;;;;;5036816;28;20493;-65
2022/08/02 00:23:30;;;;;;;5.63;2.88;;;15.80;99.90;;;;;;5036765;28;20053;-64
2022/08/02 00:25:56;;;;;;;6.47;3.38;;;15.80;99.90;;;;;;5041496;28;20045;-65
2022/08/02 00:28:24;;;;;;;5.78;2.95;;;15.80;99.90;;;;;;5042050;28;20057;-65
2022/08/02 00:30:49;;;;;;;7.30;3.15;;;15.70;99.90;;;;;;5038383;28;20502;-65
2022/08/02 00:33:15;;;;;;;7.10;2.95;;;15.70;99.90;;;;;;5043244;28;20049;-65
2022/08/02 00:35:41;;;;;;;6.65;3.22;;;15.70;99.90;;;;;;5033229;28;20052;-65
2022/08/02 00:38:06;;;;;;;6.97;3.10;;;15.70;99.90;;;;;;5038856;28;20065;-65
2022/08/02 00:40:32;;;;;;;8.07;3.03;;;15.70;99.90;;;;;;5035574;28;20049;-65
2022/08/02 00:43:06;;;;;;;7.38;3.00;;;15.60;99.90;;;;;;5038002;28;20137;-65
2022/08/02 00:45:36;;;;;;;8.43;3.10;;;15.60;99.90;;;;;;5034884;28;20049;-65
2022/08/02 00:48:03;;;;;;;8.65;3.28;;;15.60;99.90;;;;;;5041043;28;20136;-65
2022/08/02 00:50:30;;;;;;;8.45;3.28;;;15.60;99.90;;;;;;5033666;28;20468;-65
2022/08/02 00:52:56;;;;;;;7.30;3.00;;;15.60;99.90;;;;;;5029949;28;20132;-64
2022/08/02 00:55:21;;;;;;;6.80;2.97;;;15.60;99.90;;;;;;5037888;28;20120;-64
2022/08/02 00:57:47;;;;;;;7.25;3.20;;;15.60;99.90;;;;;;5038379;28;20042;-64
2022/08/02 01:00:14;;;;;;;8.35;3.05;;;15.60;99.90;;;;;;5041981;28;20045;-64
2022/08/02 01:02:40;;;;;;;6.40;3.13;;;15.50;99.90;;;;;;5035800;28;20041;-65
2022/08/02 01:05:06;;;;;;;7.15;3.10;;;15.50;99.90;;;;;;5040233;28;20488;-65
2022/08/02 01:07:31;;;;;;;6.45;3.13;;;15.50;99.90;;;;;;5041579;28;20080;-65
2022/08/02 01:09:57;;;;;;;7.93;3.53;;;15.50;99.90;;;;;;5042313;28;20094;-64
2022/08/02 01:12:23;;;;;;;8.95;3.25;;;15.50;99.90;;;;;;5035592;28;20475;-65
2022/08/02 01:14:54;;;;;;;8.88;3.30;;;15.50;99.90;;;;;;5039522;28;20114;-64
2022/08/02 01:17:26;;;;;;;9.07;3.72;;;15.40;99.90;;;;;;5033119;28;20133;-64
2022/08/02 01:20:07;;;;;;;9.55;3.83;;;15.40;99.90;;;;;;5041253;28;20051;-64
2022/08/02 01:22:58;;;;;;;7.97;3.10;;;15.30;99.90;;;;;;5041242;28;20380;-64
2022/08/02 01:25:57;;;;;;;8.93;3.60;;;15.30;99.90;;;;;;5035273;28;20140;-64
2022/08/02 01:28:37;;;;;;;9.95;3.60;;;15.30;99.90;;;;;;5047030;28;20159;-65
2022/08/02 01:31:20;;;;;;;8.65;3.42;;;15.20;99.90;;;;;;5040437;28;20045;-65
2022/08/02 01:34:09;;;;;;;10.73;3.90;;;15.20;99.90;;;;;;5039837;28;20099;-64
2022/08/02 01:36:42;;;;;;;8.68;3.28;;;15.20;99.90;;;;;;5033972;28;20156;-64
2022/08/02 01:39:14;;;;;;;8.63;4.00;;;15.20;99.90;;;;;;5036463;28;20452;-65
2022/08/02 01:41:41;;;;;;;8.10;3.90;;;15.20;99.90;;;;;;5042961;28;20439;-64
2022/08/02 01:44:10;;;;;;;9.18;3.95;;;15.20;99.90;;;;;;5035940;28;20119;-64
2022/08/02 01:46:39;;;;;;;8.77;3.90;;;15.20;99.90;;;;;;5038519;28;20131;-64
2022/08/02 01:49:08;;;;;;;8.25;3.72;;;15.20;99.90;;;;;;5035415;28;20041;-64
2022/08/02 01:54:41;;;;;;;;;;;15.10;99.90;;;;;;5035869;28;20199;-64
2022/08/02 01:57:11;;;;;;;7.47;3.85;;;15.10;99.90;;;;;;5034222;28;19927;-64
2022/08/02 01:59:41;;;;;;;11.15;4.40;;;15.10;99.90;;;;;;5036348;28;20053;-64
2022/08/02 02:02:08;;;;;;;12.52;4.40;;;15.10;99.90;;;;;;5036796;28;20080;-64
2022/08/02 02:04:35;;;;;;;12.20;4.30;;;15.10;99.90;;;;;;5039213;28;20060;-64
2022/08/02 02:07:02;;;;;;;7.47;3.83;;;15.10;99.90;;;;;;5037057;28;20198;-64
2022/08/02 02:09:30;;;;;;;8.80;4.03;;;15.10;99.90;;;;;;5038906;28;20048;-64
2022/08/02 02:11:57;;;;;;;11.63;4.28;;;15.00;99.90;;;;;;5035541;28;20071;-64
2022/08/02 02:14:24;;;;;;;9.13;3.88;;;15.10;99.90;;;;;;5042894;28;20726;-64
2022/08/02 02:16:49;;;;;;;10.90;4.30;;;15.10;99.90;;;;;;5040007;28;20388;-64
2022/08/02 02:19:18;;;;;;;9.82;4.63;;;15.00;99.90;;;;;;5033814;28;20048;-64
2022/08/02 02:21:44;;;;;;;11.38;3.90;;;15.00;99.90;;;;;;5038918;28;20041;-64
2022/08/02 02:24:10;;;;;;;11.07;4.10;;;15.10;99.90;;;;;;5037070;28;20514;-64
2022/08/02 02:26:37;;;;;;;8.80;4.10;;;15.00;99.90;;;;;;5044921;28;20090;-64
2022/08/02 02:29:04;;;;;;;10.20;4.35;;;15.00;99.90;;;;;;5032659;28;20140;-64
2022/08/02 02:31:38;;;;;;;8.40;4.15;;;15.00;99.90;;;;;;5033821;28;20120;-64
2022/08/02 02:34:14;;;;;;;7.63;3.95;;;15.00;99.90;;;;;;5048209;28;20056;-64
2022/08/02 02:36:44;;;;;;;8.80;4.25;;;14.90;99.90;;;;;;5038065;28;20087;-64
2022/08/02 02:39:13;;;;;;;7.50;4.30;;;14.90;99.90;;;;;;5036335;28;20396;-64
2022/08/02 02:41:41;;;;;;;8.18;4.13;;;14.90;99.90;;;;;;5042942;28;20095;-64
2022/08/02 02:44:10;;;;;;;8.45;4.22;;;15.00;99.90;;;;;;5040201;28;20119;-64
2022/08/02 02:46:36;;;;;;;11.25;4.47;;;14.90;99.90;;;;;;5039878;28;20504;-64
2022/08/02 02:49:03;;;;;;;8.82;4.45;;;14.80;99.90;;;;;;5032443;28;20089;-64
2022/08/02 02:51:29;;;;;;;11.13;4.70;;;14.90;99.90;;;;;;5034636;28;20041;-64
2022/08/02 02:53:56;;;;;;;8.48;4.25;;;14.80;99.90;;;;;;5052154;28;20575;-64
2022/08/02 02:56:23;;;;;;;11.43;4.40;;;14.80;99.90;;;;;;5038458;28;20082;-64
2022/08/02 02:58:49;;;;;;;11.63;4.75;;;14.90;99.90;;;;;;5042831;28;20060;-64
2022/08/02 03:01:26;;;;;;;12.82;4.38;;;14.90;99.90;;;;;;5038179;28;20075;-64
2022/08/02 03:03:53;;;;;;;8.15;4.25;;;14.80;99.90;;;;;;5038981;28;20395;-64
2022/08/02 03:06:19;;;;;;;9.90;4.05;;;14.80;99.90;;;;;;5035519;28;20037;-64
2022/08/02 03:08:45;;;;;;;12.05;4.07;;;14.80;99.90;;;;;;5035975;28;20041;-64
2022/08/02 03:11:11;;;;;;;8.18;4.03;;;14.70;99.90;;;;;;5043416;28;20364;-64
2022/08/02 03:13:38;;;;;;;9.05;4.38;;;14.80;99.90;;;;;;5039595;28;20041;-64
2022/08/02 03:16:04;;;;;;;9.70;4.40;;;14.70;99.90;;;;;;5038600;28;20159;-64
2022/08/02 03:18:38;;;;;;;11.55;4.50;;;14.70;99.90;;;;;;5039664;28;20187;-64
2022/08/02 03:21:10;;;;;;;7.38;4.05;;;14.70;99.90;;;;;;5037024;28;20043;-64
2022/08/02 03:23:38;;;;;;;8.05;3.85;;;14.60;99.90;;;;;;5035575;28;20055;-64
2022/08/02 03:26:04;;;;;;;9.35;4.25;;;14.70;99.90;;;;;;5037933;28;20042;-64
2022/08/02 03:28:30;;;;;;;8.90;4.38;;;14.70;99.90;;;;;;5036618;28;20064;-64
2022/08/02 03:30:56;;;;;;;11.18;4.07;;;14.70;99.90;;;;;;5032248;28;20063;-64
2022/08/02 03:33:24;;;;;;;9.35;4.00;;;14.60;99.90;;;;;;5035170;28;20037;-64
2022/08/02 03:35:51;;;;;;;8.18;3.83;;;14.60;99.90;;;;;;5029371;28;20447;-64
2022/08/02 03:38:18;;;;;;;9.10;4.28;;;14.60;99.90;;;;;;5030807;28;20606;-64
2022/08/02 03:40:45;;;;;;;11.40;4.13;;;14.60;99.90;;;;;;5034009;28;20130;-64
2022/08/02 03:43:11;;;;;;;8.15;3.47;;;14.60;99.90;;;;;;5036803;28;20068;-64
2022/08/02 03:45:40;;;;;;;8.00;4.03;;;14.60;99.90;;;;;;5030981;28;20159;-64
2022/08/02 03:48:07;;;;;;;9.18;4.05;;;14.50;99.90;;;;;;5029301;28;20510;-64
2022/08/02 03:50:35;;;;;;;8.18;3.65;;;14.50;99.90;;;;;;5031596;28;20084;-64
2022/08/02 03:53:01;;;;;;;10.57;3.88;;;14.50;99.90;;;;;;5034907;28;20037;-64
2022/08/02 03:55:27;;;;;;;9.18;3.67;;;14.60;99.90;;;;;;5031884;28;20176;-64
2022/08/02 03:57:52;;;;;;;11.48;4.30;;;14.60;99.90;;;;;;5026722;28;20100;-64
2022/08/02 04:00:20;;;;;;;11.25;3.78;;;14.60;99.90;;;;;;5030244;28;20799;-64
2022/08/02 04:02:46;;;;;;;9.73;3.92;;;14.60;99.90;;;;;;5036680;28;20045;-65
2022/08/02 04:05:12;;;;;;;8.75;3.97;;;14.60;99.90;;;;;;5024420;28;20140;-64
2022/08/02 04:07:38;;;;;;;8.88;3.60;;;14.60;99.90;;;;;;5038548;28;20144;-64
2022/08/02 04:10:04;;;;;;;9.80;4.30;;;14.50;99.90;;;;;;5035699;28;20352;-64
2022/08/02 04:12:30;;;;;;;11.18;4.65;;;14.60;99.90;;;;;;5035271;28;20505;-65
2022/08/02 04:14:56;;;;;;;10.73;4.30;;;14.60;99.90;;;;;;5039489;28;20059;-65
2022/08/02 04:17:23;;;;;;;7.53;3.90;;;14.60;99.90;;;;;;5035339;28;20116;-65
2022/08/02 04:20:00;;;;;;;11.40;4.30;;;14.60;99.90;;;;;;5037409;28;20116;-65
2022/08/02 04:22:36;;;;;;;8.63;4.00;;;14.60;99.90;;;;;;5035651;28;20134;-64
2022/08/02 04:25:05;;;;;;;10.60;4.05;;;14.70;99.90;;;;;;5040074;28;20048;-64
2022/08/02 04:27:35;;;;;;;9.43;4.20;;;14.70;99.90;;;;;;5035575;28;20050;-65
2022/08/02 04:30:01;;;;;;;7.47;3.70;;;14.70;99.90;;;;;;5032565;28;20385;-65
2022/08/02 04:32:27;;;;;;;8.68;3.80;;;14.70;99.90;;;;;;5033163;28;20045;-65
2022/08/02 04:34:53;;;;;;;8.43;4.25;;;14.70;99.90;;;;;;5039320;28;20052;-65
2022/08/02 04:37:19;;;;;;;11.35;4.10;;;14.70;99.90;;;;;;5040377;28;20037;-65
2022/08/02 04:39:44;;;;;;;9.63;4.10;;;14.80;99.90;;;;;;5038276;28;20048;-65
2022/08/02 04:42:22;;;;;;;7.25;4.07;;;14.80;99.90;;;;;;5040034;28;20045;-65
2022/08/02 04:44:48;;;;;;;8.80;4.45;;;14.80;99.90;;;;;;5043215;28;20475;-64
2022/08/02 04:47:15;;;;;;;8.88;3.65;;;14.80;99.90;;;;;;5045988;28;20043;-71
2022/08/02 04:49:40;;;;;;;7.95;3.92;;;14.90;99.90;;;;;;5042707;28;20049;-71
2022/08/02 04:52:06;;;;;;;8.20;3.60;;;14.90;99.90;;;;;;5034918;28;20052;-72
2022/08/02 04:54:31;;;;;;;7.57;3.40;;;15.00;99.90;;;;;;5043278;28;20045;-71
2022/08/02 04:56:57;;;;;;;7.82;3.95;;;15.10;99.90;;;;;;5034594;28;20457;-72
2022/08/02 04:59:22;;;;;;;8.65;3.78;;;15.20;99.90;;;;;;5039065;28;20879;-73
2022/08/02 05:01:48;;;;;;;11.40;3.67;;;15.30;99.90;;;;;;5035989;28;20358;-70
2022/08/02 05:04:14;;;;;;;6.47;3.78;;;15.30;99.90;;;;;;5051327;28;20532;-70
2022/08/02 05:06:39;;;;;;;9.75;4.07;;;15.40;99.90;;;;;;5045558;28;20057;-71
2022/08/02 05:09:05;;;;;;;7.80;3.80;;;15.50;99.90;;;;;;5035252;28;20048;-71
2022/08/02 05:11:31;;;;;;;12.32;4.32;;;15.60;99.90;;;;;;5044073;28;20044;-71
2022/08/02 05:13:57;;;;;;;10.80;4.20;;;15.60;99.90;;;;;;5040115;28;20405;-71
2022/08/02 05:16:24;;;;;;;9.07;3.75;;;15.70;99.90;;;;;;5042967;28;20033;-70
2022/08/02 05:18:50;;;;;;;8.43;3.50;;;15.80;99.90;;;;;;5037579;28;20053;-71
2022/08/02 05:21:16;;;;;;;9.48;3.88;;;15.90;99.90;;;;;;5038342;28;20120;-70
2022/08/02 05:23:42;;;;;;;7.70;3.50;;;16.10;99.90;;;;;;5036986;28;20056;-70
2022/08/02 05:26:07;;;;;;;9.35;3.45;;;16.10;99.90;;;;;;5037854;28;20646;-70
2022/08/02 05:28:33;;;;;;;8.07;3.30;;;16.30;99.90;;;;;;5036646;28;20042;-70
2022/08/02 05:30:59;;;;;;;8.00;3.60;;;16.30;99.90;;;;;;5040816;28;20223;-70
2022/08/02 05:33:24;;;;;;;7.68;3.47;;;16.50;99.90;;;;;;5042142;28;20053;-70
2022/08/02 05:35:50;;;;;;;10.27;3.42;;;16.50;99.90;;;;;;5037498;28;20049;-70
2022/08/02 05:38:16;;;;;;;7.78;3.20;;;16.60;99.90;;;;;;5042850;28;20033;-71
2022/08/02 05:40:41;;;;;;;7.03;3.22;;;16.80;99.90;;;;;;5037609;28;20060;-71
2022/08/02 05:43:11;;;;;;;8.73;3.17;;;16.90;99.90;;;;;;5035274;28;20270;-71
2022/08/02 05:45:37;;;;;;;8.63;3.55;;;17.00;99.90;;;;;;5033613;28;20049;-73
2022/08/02 05:48:03;;;;;;;9.45;3.47;;;17.10;99.90;;;;;;5042211;28;20040;-72
2022/08/02 05:50:30;;;;;;;7.68;2.95;;;17.20;99.90;;;;;;5037769;28;20089;-74
2022/08/02 05:53:03;;;;;;;8.43;3.65;;;17.30;99.90;;;;;;5041554;28;21055;-70
2022/08/02 05:55:46;;;;;;;7.97;3.70;;;17.40;99.90;;;;;;5052209;28;20044;-72
2022/08/02 05:58:29;;;;;;;9.00;3.33;;;17.60;99.90;;;;;;5034430;28;20053;-73
2022/08/02 06:00:56;;;;;;;9.50;3.05;;;17.70;99.90;;;;;;5036244;28;20476;-74
2022/08/02 06:03:35;;;;;;;10.40;3.58;;;17.80;99.90;;;;;;5036873;28;20057;-74
2022/08/02 06:06:16;;;;;;;10.73;3.45;;;17.90;99.90;;;;;;5035771;28;20045;-74
2022/08/02 06:08:48;;;;;;;7.85;3.60;;;18.00;99.90;;;;;;5033968;28;20049;-73
2022/08/02 06:11:16;;;;;;;6.35;2.50;;;18.20;99.90;;;;;;5039911;28;20044;-73
2022/08/02 06:13:44;;;;;;;7.55;2.70;;;18.30;99.90;;;;;;5033168;28;20125;-74
2022/08/02 06:16:10;;;;;;;12.38;3.28;;;18.40;99.90;;;;;;5036988;28;20053;-73
2022/08/02 06:18:36;;;;;;;7.15;2.70;;;18.50;99.90;;;;;;5032072;28;20049;-74
2022/08/02 06:21:05;;;;;;;9.65;3.25;;;18.50;99.90;;;;;;5035714;28;20129;-74
2022/08/02 06:23:31;;;;;;;6.10;2.72;;;18.50;99.90;;;;;;5033962;28;20472;-73
2022/08/02 06:25:58;;;;;;;7.63;3.08;;;18.50;99.90;;;;;;5033478;28;20099;-74
2022/08/02 06:28:25;;;;;;;6.63;2.92;;;18.60;99.90;;;;;;5032965;28;20542;-73
2022/08/02 06:30:51;;;;;;;5.35;2.40;;;18.70;99.90;;;;;;5035177;28;20043;-74
2022/08/02 06:33:17;;;;;;;6.63;2.40;;;18.70;99.90;;;;;;5033263;28;20044;-74
2022/08/02 06:36:08;;;;;;;8.55;3.30;;;18.80;99.90;;;;;;5033899;28;20041;-74
2022/08/02 06:38:55;;;;;;;6.30;3.25;;;18.90;99.90;;;;;;5034976;28;20125;-75
2022/08/02 06:41:23;;;;;;;6.57;2.80;;;18.90;99.90;;;;;;5030390;28;20041;-73
2022/08/02 06:43:53;;;;;;;7.70;2.58;;;18.90;99.90;;;;;;5034523;28;20049;-71
2022/08/02 06:46:19;;;;;;;7.05;2.80;;;19.00;99.90;;;;;;5040930;28;20067;-75
2022/08/02 06:48:45;;;;;;;6.97;2.42;;;19.20;99.90;;;;;;5039030;28;20160;-70
2022/08/02 06:51:11;;;;;;;6.63;2.45;;;19.40;99.90;;;;;;5047940;28;20120;-73
2022/08/02 06:53:37;;;;;;;7.93;3.40;;;19.40;99.90;;;;;;5044934;28;20128;-73
2022/08/02 06:56:03;;;;;;;7.65;3.22;;;19.50;99.90;;;;;;5031377;28;20084;-73
2022/08/02 06:58:29;;;;;;;6.18;2.65;;;19.60;99.90;;;;;;5034605;28;20044;-74
2022/08/02 07:00:55;;;;;;;7.13;2.55;;;19.70;99.90;;;;;;5041975;28;20036;-68
2022/08/02 07:03:21;;;;;;;7.32;2.75;;;19.90;99.90;;;;;;5031105;28;20053;-67
2022/08/02 07:05:47;;;;;;;7.30;2.28;;;20.00;99.90;;;;;;5044429;28;20052;-68
2022/08/02 07:08:16;;;;;;;6.93;2.80;;;20.20;99.90;;;;;;5032699;28;20125;-68
2022/08/02 07:10:41;;;;;;;6.50;2.47;;;20.30;99.90;;;;;;5041106;28;20081;-68
2022/08/02 07:13:07;;;;;;;5.90;2.15;;;20.50;99.90;;;;;;5036752;28;20519;-69
2022/08/02 07:15:33;;;;;;;8.05;2.67;;;20.50;99.90;;;;;;5032759;28;20489;-67
2022/08/02 07:17:58;;;;;;;5.20;2.03;;;20.60;99.90;;;;;;5037057;28;20033;-66
2022/08/02 07:20:24;;;;;;;7.40;2.40;;;20.60;99.90;;;;;;5047840;28;20057;-65
2022/08/02 07:22:50;;;;;;;5.43;2.78;;;20.50;99.90;;;;;;5031067;28;20386;-65
2022/08/02 07:25:16;;;;;;;6.82;2.35;;;20.50;99.90;;;;;;5047724;28;20047;-66
2022/08/02 07:27:42;;;;;;;8.40;2.55;;;20.40;99.90;;;;;;5048344;28;20487;-66
2022/08/02 07:30:08;;;;;;;7.00;2.50;;;20.40;99.90;;;;;;5045514;28;20103;-66
2022/08/02 07:32:33;;;;;;;6.88;2.33;;;20.50;99.90;;;;;;5041504;28;20045;-66
2022/08/02 07:35:00;;;;;;;6.18;2.55;;;20.60;99.90;;;;;;5041000;28;20045;-66
2022/08/02 07:37:29;;;;;;;8.02;2.47;;;20.70;99.90;;;;;;5037803;28;20056;-66
2022/08/02 07:39:54;;;;;;;9.00;2.65;;;20.80;99.90;;;;;;5036671;28;20048;-66
2022/08/02 07:42:20;;;;;;;6.70;2.50;;;20.90;99.90;;;;;;5040540;28;20034;-66
2022/08/02 07:44:46;;;;;;;6.28;2.45;;;21.00;99.90;;;;;;5041671;28;20053;-66
2022/08/02 07:47:11;;;;;;;10.13;2.65;;;21.10;99.90;;;;;;5030520;28;20365;-66
2022/08/02 07:49:37;;;;;;;6.50;2.33;;;21.20;99.90;;;;;;5044635;28;20139;-66
2022/08/02 07:52:03;;;;;;;7.47;2.20;;;21.40;99.90;;;;;;5045723;28;20484;-66
2022/08/02 07:54:30;;;;;;;5.78;2.30;;;21.50;99.90;;;;;;5046310;28;20506;-66
2022/08/02 07:56:55;;;;;;;6.07;2.10;;;21.60;99.90;;;;;;5045554;28;20134;-66
2022/08/02 07:59:21;;;;;;;5.80;2.45;;;21.70;99.90;;;;;;5045299;28;20037;-66
2022/08/02 08:01:48;;;;;;;5.18;2.42;;;21.80;99.90;;;;;;5041773;28;20148;-66
2022/08/02 08:04:15;;;;;;;8.25;2.40;;;21.90;99.90;;;;;;5031326;28;20072;-67
2022/08/02 08:06:41;;;;;;;6.43;2.63;;;22.00;99.90;;;;;;5040840;28;20048;-66
2022/08/02 08:09:06;;;;;;;5.97;2.58;;;22.10;99.90;;;;;;5043859;28;20041;-66
2022/08/02 08:11:32;;;;;;;6.90;2.53;;;22.20;99.90;;;;;;5043169;28;20048;-66
2022/08/02 08:13:57;;;;;;;7.05;2.35;;;22.30;99.90;;;;;;5042861;28;20099;-66
2022/08/02 08:16:25;;;;;;;7.75;2.53;;;22.50;99.90;;;;;;5049376;28;20037;-66
2022/08/02 08:18:51;;;;;;;5.45;2.30;;;22.70;99.90;;;;;;5043990;28;20118;-65
2022/08/02 08:21:16;;;;;;;5.78;2.50;;;22.80;99.70;;;;;;5048335;28;20037;-66
2022/08/02 08:23:42;;;;;;;5.57;2.30;;;22.70;99.10;;;;;;5038168;28;20044;-66
2022/08/02 08:26:07;;;;;;;6.88;2.50;;;22.70;98.70;;;;;;5045743;28;20048;-66
2022/08/02 08:28:34;;;;;;;6.32;2.40;;;22.70;99.00;;;;;;5048064;28;20111;-66
2022/08/02 08:31:00;;;;;;;6.03;2.80;;;22.80;99.30;;;;;;5048424;28;20132;-65
2022/08/02 08:33:26;;;;;;;6.75;2.88;;;22.90;99.60;;;;;;5047252;28;20147;-66
2022/08/02 08:35:52;;;;;;;6.85;2.70;;;22.90;99.60;;;;;;5049427;28;20049;-66
2022/08/02 08:38:18;;;;;;;7.32;2.60;;;23.00;99.10;;;;;;5042432;28;20064;-66
2022/08/02 08:40:44;;;;;;;5.60;2.40;;;23.10;98.60;;;;;;5040034;28;20041;-66
2022/08/02 08:43:12;;;;;;;6.68;2.35;;;23.20;98.40;;;;;;5038998;28;20484;-66
2022/08/02 08:45:40;;;;;;;8.55;3.00;;;23.40;98.30;;;;;;5049020;28;20066;-66
2022/08/02 08:48:17;;;;;;;7.85;2.63;;;23.50;98.10;;;;;;5046303;28;20064;-66
2022/08/02 08:51:09;;;;;;;6.25;3.08;;;23.60;98.10;;;;;;5041144;28;20068;-66
2022/08/02 08:53:40;;;;;;;7.90;2.95;;;23.70;98.50;;;;;;5045317;28;20049;-65
2022/08/02 08:56:07;;;;;;;6.90;2.30;;;23.80;98.70;;;;;;5047801;28;20508;-66
2022/08/02 08:58:33;;;;;;;5.30;2.00;;;24.00;98.60;;;;;;5049605;28;20512;-66
2022/08/02 09:00:59;;;;;;;9.25;2.50;;;24.10;97.90;;;;;;5048285;28;20067;-66
2022/08/02 09:03:24;;;;;;;5.03;2.00;;;24.30;97.40;;;;;;5034436;28;20121;-66
2022/08/02 09:05:50;;;;;;;5.72;2.05;;;24.30;96.90;;;;;;5039412;28;20049;-66
2022/08/02 09:08:17;;;;;;;6.07;2.45;;;24.30;96.60;;;;;;5042907;28;20530;-66
2022/08/02 09:10:47;;;;;;;6.53;2.45;;;24.40;96.40;;;;;;5046840;28;20184;-66
2022/08/02 09:13:21;;;;;;;6.40;2.47;;;24.50;96.00;;;;;;5049663;28;20129;-66
2022/08/02 09:15:55;;;;;;;4.45;2.20;;;24.50;95.50;;;;;;5044578;28;20147;-66
2022/08/02 09:18:30;;;;;;;7.70;3.03;;;24.50;95.40;;;;;;5048799;28;20048;-65
2022/08/02 09:21:01;;;;;;;7.05;2.50;;;24.60;95.50;;;;;;5046483;28;20544;-65
2022/08/02 09:23:56;;;;;;;5.45;2.55;;;24.70;95.50;;;;;;5041138;28;20044;-65
2022/08/02 09:26:23;;;;;;;6.72;2.50;;;24.80;96.00;;;;;;5039663;28;20049;-66
2022/08/02 09:28:51;;;;;;;6.90;2.80;;;24.80;96.40;;;;;;5049105;28;20129;-66
2022/08/02 09:31:19;;;;;;;6.65;2.95;;;25.00;96.10;;;;;;5047360;28;20065;-66
2022/08/02 09:33:50;;;;;;;7.18;3.20;;;25.10;95.60;;;;;;5036333;28;20056;-66
2022/08/02 09:36:16;;;;;;;6.63;2.60;;;25.10;95.20;;;;;;5053945;28;20135;-65
2022/08/02 09:39:10;;;;;;;7.15;2.75;;;25.20;95.30;;;;;;5030858;28;20041;-67
2022/08/02 09:41:42;;;;;;;7.25;3.05;;;25.30;95.00;;;;;;5033326;28;20424;-66
2022/08/02 09:44:09;;;;;;;5.68;2.60;;;25.40;95.10;;;;;;5038500;28;20044;-66
2022/08/02 09:46:38;;;;;;;6.43;3.25;;;25.40;95.00;;;;;;5040527;28;20082;-66
2022/08/02 09:49:09;;;;;;;6.60;2.72;;;25.50;94.70;;;;;;5040446;28;20094;-65
2022/08/02 09:51:47;;;;;;;6.60;3.13;;;25.60;94.50;;;;;;5043448;28;20056;-66
2022/08/02 09:54:22;;;;;;;4.68;2.97;;;25.70;94.50;;;;;;5040577;28;20132;-66
2022/08/02 09:56:53;;;;;;;6.90;2.78;;;25.70;94.30;;;;;;5035562;28;20168;-66
2022/08/02 09:59:20;;;;;;;5.85;2.88;;;25.70;94.40;;;;;;5036436;28;20098;-66
2022/08/02 10:01:48;;;;;;;6.07;2.70;;;25.60;94.60;;;;;;5037775;28;20103;-66
2022/08/02 10:04:14;;;;;;;6.80;2.90;;;25.70;94.70;;;;;;5037128;28;20131;-66
2022/08/02 10:06:41;;;;;;;6.82;3.08;;;25.70;94.70;;;;;;5041148;28;20049;-66
2022/08/02 10:09:08;;;;;;;6.25;2.70;;;25.60;94.50;;;;;;5039087;28;20045;-66
2022/08/02 10:11:34;;;;;;;5.05;2.70;;;25.70;94.50;;;;;;5043074;28;20045;-66
2022/08/02 10:14:04;;;;;;;5.85;2.75;;;25.70;94.70;;;;;;5041008;28;20492;-66
2022/08/02 10:16:31;;;;;;;6.15;2.97;;;25.80;95.10;;;;;;5046217;28;20123;-67
2022/08/02 10:18:59;;;;;;;5.68;2.58;;;25.90;94.70;;;;;;5035728;28;20133;-65
2022/08/02 10:21:32;;;;;;;5.80;3.00;;;26.00;94.70;;;;;;5048705;28;20045;-68
2022/08/02 10:24:20;;;;;;;6.93;2.55;;;26.10;94.50;;;;;;5048519;28;20037;-68
2022/08/02 10:26:47;;;;;;;7.45;2.92;;;26.20;94.80;;;;;;5036775;28;20087;-68
2022/08/02 10:29:16;;;;;;;7.30;3.10;;;26.20;94.60;;;;;;5037512;28;20083;-69
2022/08/02 10:31:56;;;;;;;6.30;2.85;;;26.20;94.40;;;;;;5038333;28;20048;-68
2022/08/02 10:34:28;;;;;;;6.55;2.72;;;26.30;94.40;;;;;;5042367;28;20043;-67
2022/08/02 10:36:54;;;;;;;6.40;2.83;;;26.30;94.40;;;;;;5042054;28;20508;-67
2022/08/02 10:39:20;;;;;;;4.15;1.98;;;26.40;94.10;;;;;;5045645;28;20029;-68
2022/08/02 10:41:51;;;;;;;3.97;1.50;;;26.30;92.50;;;;;;5034686;28;20114;-68
2022/08/02 10:44:24;;;;;;;4.88;1.98;;;26.30;91.50;;;;;;5039517;28;20379;-68
2022/08/02 10:46:49;;;;;;;5.50;2.03;;;26.30;91.60;;;;;;5038235;28;20083;-68
2022/08/02 10:49:17;;;;;;;3.33;1.92;;;26.20;91.70;;;;;;5032725;28;20458;-67
2022/08/02 10:52:04;;;;;;;5.95;2.65;;;26.20;91.40;;;;;;5035194;28;20056;-67
2022/08/02 10:54:30;;;;;;;4.15;2.00;;;26.40;92.00;;;;;;5039120;28;20037;-68
2022/08/02 10:56:57;;;;;;;6.35;3.03;;;26.50;92.10;;;;;;5043156;28;20041;-67
2022/08/02 10:59:30;;;;;;;6.85;3.50;;;26.60;91.90;;;;;;5045807;28;20051;-67
2022/08/02 11:02:01;;;;;;;6.32;3.22;;;26.60;91.50;;;;;;5042579;28;20042;-67
2022/08/02 11:04:46;;;;;;;6.35;3.47;;;26.70;92.20;;;;;;5027930;28;20119;-67
2022/08/02 11:07:17;;;;;;;6.63;3.78;;;26.90;92.30;;;;;;5030334;28;20057;-68
2022/08/02 11:09:48;;;;;;;5.78;3.33;;;26.90;92.00;;;;;;5041868;28;20051;-67
2022/08/02 11:12:19;;;;;;;7.30;3.10;;;26.90;91.70;;;;;;5045092;28;20076;-68
2022/08/02 11:14:57;;;;;;;5.75;3.50;;;26.90;91.80;;;;;;5032708;28;20111;-68
2022/08/02 11:17:24;;;;;;;5.85;3.60;;;26.90;91.70;;;;;;5043208;28;20102;-68
2022/08/02 11:20:14;;;;;;;6.93;4.47;;;26.80;92.30;;;;;;5034345;28;20464;-67
2022/08/02 11:22:41;;;;;;;7.78;4.60;;;27.00;92.10;;;;;;5041454;28;20095;-68
2022/08/02 11:25:22;;;;;;;6.63;4.05;;;26.80;91.80;;;;;;5047073;28;20044;-68
2022/08/02 11:27:48;;;;;;;8.00;4.35;;;26.90;91.70;;;;;;5035567;28;20124;-67
2022/08/02 11:30:15;;;;;;;6.53;3.97;;;26.80;91.70;;;;;;5040512;28;20159;-68
2022/08/02 11:32:41;;;;;;;6.13;4.03;;;26.90;91.70;;;;;;5045989;28;20048;-68
2022/08/02 11:35:07;;;;;;;8.30;3.78;;;26.90;91.60;;;;;;5033602;28;20045;-68
2022/08/02 11:37:38;;;;;;;7.28;4.07;;;26.90;91.60;;;;;;5032612;28;20049;-68
2022/08/02 11:40:06;;;;;;;6.55;4.10;;;27.00;91.50;;;;;;5040848;28;20199;-68
2022/08/02 11:42:37;;;;;;;9.23;4.32;;;27.10;91.70;;;;;;5047412;28;20176;-68
2022/08/02 11:45:05;;;;;;;7.78;3.38;;;27.30;92.30;;;;;;5046191;28;20033;-68
2022/08/02 11:47:31;;;;;;;7.57;3.03;;;27.40;92.20;;;;;;5044940;28;20985;-68
2022/08/02 11:50:04;;;;;;;5.65;2.17;;;27.50;91.50;;;;;;5046335;28;20049;-67
2022/08/02 11:52:34;;;;;;;3.80;2.00;;;27.60;91.10;;;;;;5051267;28;20125;-68
2022/08/02 11:55:00;;;;;;;4.30;2.20;;;27.50;90.40;;;;;;5045984;28;20041;-67
2022/08/02 11:57:25;;;;;;;5.75;2.45;;;27.50;89.80;;;;;;5047427;28;20552;-68
2022/08/02 11:59:53;;;;;;;3.95;2.30;;;27.50;89.70;;;;;;5049606;28;20128;-67
2022/08/02 12:02:27;;;;;;;4.53;2.20;;;27.40;89.10;;;;;;5046758;28;20044;-68
2022/08/02 12:04:53;;;;;;;;;;;27.30;90.20;;;;;;5040157;28;20060;-66
2022/08/02 12:07:35;;;;;;;5.85;2.95;;;27.30;90.30;;;;;;5038473;28;19921;-67
2022/08/02 12:10:07;;;;;;;6.63;2.65;;;27.10;90.30;;;;;;5045704;28;20060;-67
2022/08/02 12:12:55;;;;;;;4.10;2.53;;;27.20;90.20;;;;;;5062184;28;20052;-67
2022/08/02 12:15:36;;;;;;;5.90;2.78;;;27.40;90.60;;;;;;5043166;28;20116;-68
2022/08/02 12:20:51;;;;;;;3.95;2.60;;;27.50;90.50;;;;;;5046576;28;20053;-68
2022/08/02 12:23:17;;;;;;;4.63;2.42;;;27.80;90.20;;;;;;5041314;28;20041;-70
2022/08/02 12:25:42;;;;;;;4.70;2.47;;;28.00;90.50;;;;;;5036834;28;20057;-69
2022/08/02 12:28:21;;;;;;;5.93;3.08;;;28.20;90.10;;;;;;5034346;28;20106;-70
2022/08/02 12:30:52;;;;;;;5.97;3.45;;;28.30;89.60;;;;;;5058432;28;20145;-70
2022/08/02 12:33:18;;;;;;;7.35;3.58;;;28.30;89.10;;;;;;5041429;28;20041;-70
2022/08/02 12:35:44;;;;;;;5.60;3.00;;;28.40;88.80;;;;;;5048443;28;20057;-70
2022/08/02 12:38:10;;;;;;;5.70;3.38;;;28.40;88.80;;;;;;5044230;28;20041;-70
2022/08/02 12:40:36;;;;;;;5.43;3.80;;;28.20;88.20;;;;;;5047798;28;20052;-70
2022/08/02 12:43:05;;;;;;;6.13;3.60;;;28.00;87.30;;;;;;5048687;28;20049;-70
2022/08/02 12:45:43;;;;;;;5.85;3.40;;;27.80;87.50;;;;;;5041263;28;20068;-70
2022/08/02 12:48:09;;;;;;;6.47;3.88;;;27.70;87.90;;;;;;5032580;28;20408;-70
2022/08/02 12:50:36;;;;;;;5.57;3.70;;;27.70;88.40;;;;;;5041913;28;20044;-70
2022/08/02 12:53:09;;;;;;;8.75;4.20;;;27.70;88.80;;;;;;5044394;28;20183;-70
2022/08/02 12:55:56;;;;;;;6.35;4.30;;;27.70;88.90;;;;;;5047061;28;20056;-70
2022/08/02 12:58:21;;;;;;;8.88;4.68;;;27.70;89.40;;;;;;5037641;28;20049;-69
2022/08/02 13:00:58;;;;;;;8.55;4.90;;;27.70;89.70;;;;;;5036734;28;20052;-69